createdAt,value
2018-01-06T00:02:16.579Z,12.67
2018-01-06T00:04:44.103Z,15.47
2018-01-06T00:07:11.718Z,16.03
2018-01-06T00:09:39.236Z,13.50
2018-01-06T00:12:06.763Z,14.57
2018-01-06T00:14:34.350Z,13.93
2018-01-06T00:17:01.909Z,13.90
2018-01-06T00:19:29.475Z,14.80
2018-01-06T00:21:57.000Z,15.43
2018-01-06T00:24:24.553Z,14.93
2018-01-06T00:26:52.166Z,13.57
2018-01-06T00:29:19.683Z,15.27
2018-01-06T00:31:47.292Z,14.93
2018-01-06T00:34:14.913Z,14.83
2018-01-06T00:36:42.701Z,15.30
2018-01-06T00:39:10.213Z,16.07
2018-01-06T00:41:37.746Z,13.97
2018-01-06T00:44:05.264Z,13.80
2018-01-06T00:46:32.803Z,14.33
2018-01-06T00:49:00.410Z,12.33
2018-01-06T00:51:28.012Z,14.20
2018-01-06T00:53:55.724Z,14.30
2018-01-06T00:56:23.296Z,14.80
2018-01-06T00:58:50.858Z,13.80
2018-01-06T01:01:18.587Z,15.20
2018-01-06T01:03:47.386Z,13.67
2018-01-06T01:06:15.596Z,15.40
2018-01-06T01:08:43.350Z,17.00
2018-01-06T01:11:11.089Z,14.90
2018-01-06T01:13:38.866Z,15.13
2018-01-06T01:16:06.436Z,15.47
2018-01-06T01:18:33.946Z,15.37
2018-01-06T01:21:01.492Z,15.60
2018-01-06T01:23:29.306Z,18.70
2018-01-06T01:25:56.918Z,14.10
2018-01-06T01:28:24.431Z,12.80
2018-01-06T01:30:51.978Z,13.50
2018-01-06T01:33:19.521Z,13.37
2018-01-06T01:35:47.177Z,14.13
2018-01-06T01:38:14.720Z,12.70
2018-01-06T01:40:42.408Z,13.97
2018-01-06T01:43:09.951Z,14.23
2018-01-06T01:45:37.529Z,14.40
2018-01-06T01:48:05.051Z,13.93
2018-01-06T01:50:32.628Z,16.07
2018-01-06T01:53:00.264Z,15.37
2018-01-06T01:55:27.924Z,14.80
2018-01-06T01:57:55.483Z,14.80
2018-01-06T02:00:23.074Z,14.80
2018-01-06T02:02:50.619Z,16.57
2018-01-06T02:05:18.217Z,14.17
2018-01-06T02:07:45.776Z,15.40
2018-01-06T02:10:13.338Z,16.43
2018-01-06T02:12:40.941Z,15.37
2018-01-06T02:15:08.459Z,17.07
2018-01-06T02:17:36.017Z,16.73
2018-01-06T02:20:03.598Z,14.83
2018-01-06T02:22:31.202Z,16.10
2018-01-06T02:24:58.726Z,16.47
2018-01-06T02:27:26.244Z,16.50
2018-01-06T02:29:53.828Z,17.70
2018-01-06T02:32:21.372Z,16.73
2018-01-06T02:34:48.946Z,13.27
2018-01-06T02:37:16.473Z,14.60
2018-01-06T02:39:44.094Z,15.30
2018-01-06T02:42:11.664Z,16.00
2018-01-06T02:44:39.194Z,15.80
2018-01-06T02:47:06.817Z,15.40
2018-01-06T02:49:34.340Z,16.70
2018-01-06T02:52:01.966Z,15.53
2018-01-06T02:54:29.516Z,16.23
2018-01-06T02:56:57.080Z,16.07
2018-01-06T02:59:24.628Z,16.00
2018-01-06T03:01:52.214Z,15.80
2018-01-06T03:04:19.766Z,17.30
2018-01-06T03:06:47.331Z,16.93
2018-01-06T03:09:15.046Z,15.97
2018-01-06T03:11:42.612Z,15.87
2018-01-06T03:14:10.210Z,14.57
2018-01-06T03:16:37.859Z,16.30
2018-01-06T03:19:05.437Z,14.97
2018-01-06T03:21:33.164Z,14.80
2018-01-06T03:24:00.716Z,15.00
2018-01-06T03:26:28.250Z,15.87
2018-01-06T03:28:55.810Z,16.63
2018-01-06T03:31:23.362Z,16.67
2018-01-06T03:33:50.921Z,18.60
2018-01-06T03:36:18.559Z,16.87
2018-01-06T03:38:46.108Z,17.23
2018-01-06T03:41:13.694Z,17.53
2018-01-06T03:43:41.346Z,18.00
2018-01-06T03:46:08.938Z,16.07
2018-01-06T03:48:36.602Z,16.90
2018-01-06T03:51:04.266Z,16.37
2018-01-06T03:53:31.829Z,16.03
2018-01-06T03:56:00.385Z,17.57
2018-01-06T03:58:27.944Z,18.30
2018-01-06T04:00:55.486Z,20.00
2018-01-06T04:03:23.014Z,19.87
2018-01-06T04:05:50.734Z,19.13
2018-01-06T04:08:18.288Z,20.13
2018-01-06T04:10:45.810Z,21.33
2018-01-06T04:13:13.401Z,19.83
2018-01-06T04:15:40.920Z,21.03
2018-01-06T04:18:08.440Z,19.87
2018-01-06T04:20:36.013Z,19.40
2018-01-06T04:23:03.552Z,21.07
2018-01-06T04:25:31.092Z,23.47
2018-01-06T04:27:58.632Z,22.13
2018-01-06T04:30:26.200Z,21.47
2018-01-06T04:32:53.859Z,21.67
2018-01-06T04:35:21.474Z,21.10
2018-01-06T04:37:49.047Z,21.80
2018-01-06T04:40:16.604Z,21.43
2018-01-06T04:42:44.189Z,21.10
2018-01-06T04:45:11.754Z,20.37
2018-01-06T04:47:39.373Z,23.23
2018-01-06T04:50:06.953Z,21.83
2018-01-06T04:52:34.480Z,19.93
2018-01-06T04:55:02.052Z,23.10
2018-01-06T04:57:29.631Z,21.33
2018-01-06T04:59:57.189Z,23.20
2018-01-06T05:02:24.781Z,21.70
2018-01-06T05:04:52.349Z,21.77
2018-01-06T05:07:19.905Z,21.30
2018-01-06T05:09:47.494Z,19.63
2018-01-06T05:12:15.004Z,20.90
2018-01-06T05:14:42.580Z,24.20
2018-01-06T05:17:10.109Z,24.60
2018-01-06T05:19:37.618Z,25.30
2018-01-06T05:22:05.201Z,24.47
2018-01-06T05:24:32.740Z,24.73
2018-01-06T05:27:00.327Z,24.60
2018-01-06T05:29:27.915Z,25.20
2018-01-06T05:31:55.525Z,23.50
2018-01-06T05:34:23.094Z,25.90
2018-01-06T05:36:50.858Z,24.47
2018-01-06T05:39:18.438Z,27.20
2018-01-06T05:41:46.037Z,23.70
2018-01-06T05:44:13.653Z,25.23
2018-01-06T05:46:41.275Z,26.50
2018-01-06T05:49:08.835Z,24.63
2018-01-06T05:51:36.356Z,25.60
2018-01-06T05:54:03.911Z,26.23
2018-01-06T05:56:31.644Z,25.97
2018-01-06T05:58:59.175Z,23.80
2018-01-06T06:01:26.732Z,24.60
2018-01-06T06:03:54.346Z,27.00
2018-01-06T06:06:21.871Z,24.63
2018-01-06T06:08:49.392Z,24.80
2018-01-06T06:11:16.927Z,26.60
2018-01-06T06:13:44.499Z,25.20
2018-01-06T06:16:12.070Z,25.57
2018-01-06T06:18:39.627Z,25.60
2018-01-06T06:21:07.192Z,25.63
2018-01-06T06:23:34.807Z,26.23
2018-01-06T06:26:02.333Z,25.67
2018-01-06T06:28:29.989Z,27.60
2018-01-06T06:30:57.581Z,27.00
2018-01-06T06:33:25.107Z,26.00
2018-01-06T06:35:52.718Z,27.87
2018-01-06T06:38:20.240Z,26.87
2018-01-06T06:40:47.756Z,27.90
2018-01-06T06:43:15.352Z,28.00
2018-01-06T06:45:42.914Z,27.33
2018-01-06T06:48:10.473Z,26.57
2018-01-06T06:50:38.027Z,29.87
2018-01-06T06:53:05.540Z,26.57
2018-01-06T06:55:33.133Z,25.80
2018-01-06T06:58:00.655Z,27.30
2018-01-06T07:00:28.333Z,28.60
2018-01-06T07:02:56.116Z,27.83
2018-01-06T07:05:23.688Z,26.00
2018-01-06T07:07:51.458Z,27.53
2018-01-06T07:10:19.008Z,27.00
2018-01-06T07:12:46.537Z,25.07
2018-01-06T07:15:14.085Z,26.63
2018-01-06T07:17:41.594Z,26.20
2018-01-06T07:20:09.168Z,26.63
2018-01-06T07:22:37.590Z,25.77
2018-01-06T07:25:05.400Z,25.17
2018-01-06T07:27:33.067Z,28.23
2018-01-06T07:30:00.601Z,25.70
2018-01-06T07:32:28.160Z,25.33
2018-01-06T07:34:55.999Z,24.47
2018-01-06T07:37:23.518Z,24.93
2018-01-06T07:39:51.027Z,25.53
2018-01-06T07:42:18.601Z,27.57
2018-01-06T07:44:46.115Z,24.93
2018-01-06T07:47:13.702Z,25.17
2018-01-06T07:49:41.210Z,25.47
2018-01-06T07:52:08.766Z,25.60
2018-01-06T07:54:36.279Z,27.87
2018-01-06T07:57:03.791Z,25.73
2018-01-06T07:59:31.378Z,27.33
2018-01-06T08:01:58.917Z,25.47
2018-01-06T08:04:26.469Z,28.97
2018-01-06T08:06:54.119Z,28.83
2018-01-06T08:09:21.739Z,31.37
2018-01-06T08:11:49.280Z,30.93
2018-01-06T08:14:16.806Z,30.93
2018-01-06T08:16:44.440Z,29.07
2018-01-06T08:19:12.104Z,27.40
2018-01-06T08:21:39.827Z,29.10
2018-01-06T08:24:07.385Z,31.63
2018-01-06T08:26:34.899Z,31.03
2018-01-06T08:29:02.472Z,25.07
2018-01-06T08:31:30.039Z,26.50
2018-01-06T08:33:57.854Z,26.63
2018-01-06T08:36:25.507Z,25.70
2018-01-06T08:38:53.027Z,25.27
2018-01-06T08:41:20.588Z,25.10
2018-01-06T08:43:48.238Z,25.90
2018-01-06T08:46:15.816Z,24.60
2018-01-06T08:48:43.416Z,23.97
2018-01-06T08:51:10.981Z,24.80
2018-01-06T08:53:38.541Z,24.70
2018-01-06T08:56:06.209Z,27.37
2018-01-06T08:58:33.801Z,23.23
2018-01-06T09:01:01.365Z,24.13
2018-01-06T09:03:29.052Z,24.77
2018-01-06T09:05:56.612Z,25.87
2018-01-06T09:08:24.344Z,24.40
2018-01-06T09:10:51.937Z,22.10
2018-01-06T09:13:19.461Z,23.33
2018-01-06T09:15:47.203Z,21.00
2018-01-06T09:18:14.822Z,23.73
2018-01-06T09:20:42.344Z,21.33
2018-01-06T09:23:10.026Z,24.23
2018-01-06T09:25:37.641Z,24.10
2018-01-06T09:28:05.176Z,25.23
2018-01-06T09:30:32.755Z,25.63
2018-01-06T09:33:00.347Z,24.00
2018-01-06T09:35:27.925Z,23.13
2018-01-06T09:37:55.445Z,22.53
2018-01-06T09:40:23.000Z,21.00
2018-01-06T09:42:50.608Z,21.30
2018-01-06T09:45:18.156Z,20.67
2018-01-06T09:47:45.688Z,20.13
2018-01-06T09:50:13.231Z,19.43
2018-01-06T09:52:40.789Z,19.23
2018-01-06T09:55:08.361Z,19.97
2018-01-06T09:57:35.918Z,20.87
2018-01-06T10:00:03.468Z,18.23
2018-01-06T10:02:31.022Z,19.77
2018-01-06T10:04:58.610Z,18.67
2018-01-06T10:07:26.246Z,18.00
2018-01-06T10:09:53.826Z,17.70
2018-01-06T10:12:21.347Z,19.57
2018-01-06T10:14:48.961Z,18.80
2018-01-06T10:17:16.715Z,18.83
2018-01-06T10:19:44.282Z,18.30
2018-01-06T10:22:11.866Z,25.53
2018-01-06T10:24:39.433Z,24.50
2018-01-06T10:27:06.987Z,44.70
2018-01-06T10:29:34.560Z,21.00
2018-01-06T10:32:02.188Z,27.63
2018-01-06T10:34:29.708Z,26.60
2018-01-06T10:36:57.312Z,32.13
2018-01-06T10:39:25.074Z,22.33
2018-01-06T10:41:52.610Z,21.43
2018-01-06T10:44:20.235Z,21.97
2018-01-06T10:46:47.816Z,23.20
2018-01-06T10:49:15.381Z,22.17
2018-01-06T10:51:42.928Z,21.77
2018-01-06T10:54:10.520Z,23.57
2018-01-06T10:56:38.032Z,22.80
2018-01-06T10:59:05.893Z,22.80
2018-01-06T11:01:39.293Z,22.07
2018-01-06T11:04:06.915Z,21.47
2018-01-06T11:06:34.502Z,22.90
2018-01-06T11:09:02.025Z,21.50
2018-01-06T11:11:29.596Z,21.57
2018-01-06T11:13:57.158Z,21.67
2018-01-06T11:16:24.751Z,19.30
2018-01-06T11:18:52.329Z,20.37
2018-01-06T11:21:19.864Z,20.77
2018-01-06T11:23:47.420Z,20.60
2018-01-06T11:26:14.978Z,18.83
2018-01-06T11:28:42.567Z,19.33
2018-01-06T11:31:10.084Z,21.13
2018-01-06T11:33:37.604Z,19.07
2018-01-06T11:36:05.418Z,20.80
2018-01-06T11:38:32.989Z,22.47
2018-01-06T11:41:00.567Z,25.57
2018-01-06T11:43:28.104Z,21.60
2018-01-06T11:45:55.632Z,22.00
2018-01-06T11:48:23.176Z,21.83
2018-01-06T11:50:50.780Z,22.80
2018-01-06T11:53:18.334Z,22.97
2018-01-06T11:55:45.897Z,22.83
2018-01-06T11:58:13.465Z,23.50
2018-01-06T12:00:41.009Z,22.20
2018-01-06T12:03:08.566Z,22.03
2018-01-06T12:05:36.114Z,21.60
2018-01-06T12:08:03.759Z,25.57
2018-01-06T12:10:31.319Z,21.63
2018-01-06T12:12:58.880Z,21.17
2018-01-06T12:15:26.574Z,22.80
2018-01-06T12:17:54.243Z,22.83
2018-01-06T12:20:21.933Z,23.10
2018-01-06T12:22:49.518Z,23.37
2018-01-06T12:25:17.124Z,24.10
2018-01-06T12:27:44.698Z,24.87
2018-01-06T12:30:12.436Z,24.10
2018-01-06T12:32:40.165Z,23.30
2018-01-06T12:35:07.725Z,23.03
2018-01-06T12:37:35.342Z,22.97
2018-01-06T12:40:03.006Z,23.07
2018-01-06T12:42:30.560Z,22.43
2018-01-06T12:44:58.146Z,21.47
2018-01-06T12:47:25.668Z,23.80
2018-01-06T12:49:53.247Z,20.17
2018-01-06T12:52:20.798Z,19.67
2018-01-06T12:54:48.352Z,18.70
2018-01-06T12:57:15.974Z,16.77
2018-01-06T12:59:43.545Z,16.83
2018-01-06T13:02:11.062Z,17.07
2018-01-06T13:04:38.674Z,18.63
2018-01-06T13:07:06.186Z,18.70
2018-01-06T13:09:33.716Z,18.37
2018-01-06T13:12:01.317Z,18.57
2018-01-06T13:14:28.891Z,17.43
2018-01-06T13:16:56.449Z,20.83
2018-01-06T13:19:24.193Z,18.33
2018-01-06T13:21:51.758Z,31.00
2018-01-06T13:24:19.446Z,30.57
2018-01-06T13:26:47.057Z,23.07
2018-01-06T13:29:14.629Z,20.40
2018-01-06T13:31:42.173Z,18.50
2018-01-06T13:34:09.758Z,22.13
2018-01-06T13:36:37.330Z,27.80
2018-01-06T13:39:05.067Z,19.80
2018-01-06T13:41:32.586Z,20.93
2018-01-06T13:44:00.177Z,21.47
2018-01-06T13:46:27.715Z,27.80
2018-01-06T13:48:55.354Z,20.90
2018-01-06T13:51:22.895Z,21.50
2018-01-06T13:53:50.497Z,22.40
2018-01-06T13:56:18.061Z,20.20
2018-01-06T13:58:45.605Z,22.33
2018-01-06T14:01:13.211Z,21.70
2018-01-06T14:03:40.760Z,22.93
2018-01-06T14:06:08.307Z,26.03
2018-01-06T14:08:35.859Z,20.00
2018-01-06T14:11:03.396Z,22.80
2018-01-06T14:13:31.002Z,23.87
2018-01-06T14:15:58.600Z,21.00
2018-01-06T14:18:26.112Z,26.73
2018-01-06T14:20:53.669Z,23.60
2018-01-06T14:23:21.302Z,25.17
2018-01-06T14:25:48.850Z,24.47
2018-01-06T14:28:16.380Z,26.90
2018-01-06T14:30:43.957Z,33.37
2018-01-06T14:33:11.480Z,26.53
2018-01-06T14:35:39.025Z,32.77
2018-01-06T14:38:06.536Z,29.00
2018-01-06T14:40:34.168Z,29.37
2018-01-06T14:43:01.725Z,31.37
2018-01-06T14:45:29.324Z,27.70
2018-01-06T14:47:56.885Z,26.57
2018-01-06T14:50:24.420Z,30.90
2018-01-06T14:52:51.973Z,28.07
2018-01-06T14:55:19.548Z,25.50
2018-01-06T14:57:47.056Z,27.57
2018-01-06T15:00:15.548Z,27.07
2018-01-06T15:02:43.428Z,28.10
2018-01-06T15:05:10.967Z,26.97
2018-01-06T15:07:38.845Z,34.00
2018-01-06T15:10:06.428Z,34.83
2018-01-06T15:12:33.944Z,30.03
2018-01-06T15:15:01.497Z,38.33
2018-01-06T15:17:29.111Z,34.50
2018-01-06T15:19:56.678Z,45.67
2018-01-06T15:22:24.281Z,47.33
2018-01-06T15:24:52.060Z,29.93
2018-01-06T15:27:19.747Z,44.37
2018-01-06T15:29:47.414Z,34.63
2018-01-06T15:32:14.986Z,32.30
2018-01-06T15:34:42.535Z,30.67
2018-01-06T15:37:10.118Z,40.17
2018-01-06T15:39:37.673Z,25.83
2018-01-06T15:42:05.250Z,35.30
2018-01-06T15:44:32.818Z,21.53
2018-01-06T15:47:00.709Z,26.50
2018-01-06T15:49:28.230Z,30.57
2018-01-06T15:51:55.796Z,25.10
2018-01-06T15:54:23.352Z,21.80
2018-01-06T15:56:50.903Z,16.33
2018-01-06T15:59:18.458Z,7.67
2018-01-06T16:01:46.038Z,5.80
2018-01-06T16:04:13.556Z,6.13
2018-01-06T16:06:41.148Z,4.17
2018-01-06T16:09:08.689Z,3.30
2018-01-06T16:11:36.241Z,2.50
2018-01-06T16:14:03.793Z,3.63
2018-01-06T16:16:31.374Z,6.27
2018-01-06T16:18:58.930Z,4.13
2018-01-06T16:21:26.542Z,2.80
2018-01-06T16:23:54.060Z,3.83
2018-01-06T16:26:21.763Z,4.27
2018-01-06T16:28:49.425Z,3.80
2018-01-06T16:31:17.034Z,4.37
2018-01-06T16:33:44.581Z,4.97
2018-01-06T16:36:12.135Z,10.53
2018-01-06T16:38:39.934Z,7.57
2018-01-06T16:41:07.487Z,4.43
2018-01-06T16:43:35.053Z,4.37
2018-01-06T16:46:02.568Z,5.17
2018-01-06T16:48:30.163Z,6.53
2018-01-06T16:50:57.710Z,4.97
2018-01-06T16:53:25.267Z,7.40
2018-01-06T16:55:52.838Z,4.47
2018-01-06T16:58:20.394Z,4.00
2018-01-06T17:00:48.003Z,2.80
2018-01-06T17:03:15.637Z,2.40
2018-01-06T17:05:43.224Z,4.27
2018-01-06T17:08:10.888Z,4.40
2018-01-06T17:10:38.473Z,2.97
2018-01-06T17:13:06.000Z,4.10
2018-01-06T17:15:33.546Z,3.90
2018-01-06T17:18:01.090Z,2.97
2018-01-06T17:20:28.648Z,2.97
2018-01-06T17:22:56.189Z,3.43
2018-01-06T17:25:23.723Z,3.93
2018-01-06T17:27:51.531Z,5.20
2018-01-06T17:30:19.048Z,5.13
2018-01-06T17:32:46.638Z,5.67
2018-01-06T17:35:14.185Z,8.63
2018-01-06T17:37:41.745Z,7.80
2018-01-06T17:40:09.292Z,5.37
2018-01-06T17:42:36.870Z,4.40
2018-01-06T17:45:04.517Z,3.90
2018-01-06T17:47:32.114Z,4.27
2018-01-06T17:49:59.635Z,4.60
2018-01-06T17:52:27.185Z,4.17
2018-01-06T17:54:54.935Z,4.40
2018-01-06T17:57:22.520Z,4.20
2018-01-06T17:59:50.069Z,4.20
2018-01-06T18:02:17.594Z,5.17
2018-01-06T18:04:45.131Z,4.00
2018-01-06T18:07:12.679Z,4.60
2018-01-06T18:09:40.364Z,5.00
2018-01-06T18:12:08.148Z,5.87
2018-01-06T18:14:35.660Z,4.70
2018-01-06T18:17:03.348Z,4.07
2018-01-06T18:19:31.177Z,4.60
2018-01-06T18:21:58.697Z,6.73
2018-01-06T18:24:26.279Z,4.40
2018-01-06T18:26:53.820Z,4.67
2018-01-06T18:29:21.364Z,6.50
2018-01-06T18:31:49.040Z,6.03
2018-01-06T18:34:16.617Z,5.23
2018-01-06T18:36:44.139Z,4.20
2018-01-06T18:39:11.680Z,5.00
2018-01-06T18:41:39.327Z,4.43
2018-01-06T18:44:06.843Z,5.63
2018-01-06T18:46:34.343Z,4.00
2018-01-06T18:49:01.923Z,2.83
2018-01-06T18:51:29.445Z,3.20
2018-01-06T18:53:56.946Z,5.30
2018-01-06T18:56:24.518Z,4.13
2018-01-06T18:58:52.057Z,4.17
2018-01-06T19:01:19.621Z,4.83
2018-01-06T19:03:47.250Z,5.40
2018-01-06T19:06:14.968Z,2.90
2018-01-06T19:08:42.514Z,3.60
2018-01-06T19:11:10.099Z,4.20
2018-01-06T19:13:38.652Z,3.47
2018-01-06T19:16:06.245Z,2.83
2018-01-06T19:18:33.775Z,4.33
2018-01-06T19:21:01.350Z,5.20
2018-01-06T19:23:28.905Z,3.33
2018-01-06T19:25:56.528Z,5.53
2018-01-06T19:28:24.245Z,3.23
2018-01-06T19:30:51.820Z,5.80
2018-01-06T19:33:19.363Z,5.67
2018-01-06T19:35:46.964Z,5.10
2018-01-06T19:38:14.518Z,6.10
2018-01-06T19:40:42.033Z,6.57
2018-01-06T19:43:09.790Z,6.60
2018-01-06T19:45:37.455Z,5.80
2018-01-06T19:48:05.000Z,5.60
2018-01-06T19:50:32.552Z,5.00
2018-01-06T19:53:00.150Z,4.40
2018-01-06T19:55:27.663Z,5.50
2018-01-06T19:57:55.176Z,5.77
2018-01-06T20:00:22.898Z,5.20
2018-01-06T20:02:50.500Z,6.30
2018-01-06T20:05:18.011Z,6.73
2018-01-06T20:07:45.616Z,6.10
2018-01-06T20:10:13.163Z,4.83
2018-01-06T20:12:40.719Z,6.33
2018-01-06T20:15:08.323Z,6.10
2018-01-06T20:17:35.920Z,6.93
2018-01-06T20:20:03.554Z,6.03
2018-01-06T20:22:31.087Z,5.90
2018-01-06T20:24:58.628Z,5.90
2018-01-06T20:27:26.408Z,6.40
2018-01-06T20:29:54.064Z,11.30
2018-01-06T20:32:21.824Z,7.60
2018-01-06T20:34:49.638Z,6.43
2018-01-06T20:37:17.165Z,6.10
2018-01-06T20:39:44.879Z,5.47
2018-01-06T20:42:12.392Z,5.60
2018-01-06T20:44:40.060Z,6.00
2018-01-06T20:47:07.653Z,6.00
2018-01-06T20:49:35.189Z,6.13
2018-01-06T20:52:02.771Z,6.90
2018-01-06T20:54:30.337Z,6.07
2018-01-06T20:56:57.954Z,6.87
2018-01-06T20:59:25.544Z,9.83
2018-01-06T21:01:53.058Z,5.43
2018-01-06T21:04:20.717Z,5.10
2018-01-06T21:06:48.278Z,6.30
2018-01-06T21:09:15.858Z,5.90
2018-01-06T21:11:43.541Z,5.27
2018-01-06T21:14:11.093Z,3.80
2018-01-06T21:16:38.670Z,5.20
2018-01-06T21:19:06.180Z,4.40
2018-01-06T21:21:33.722Z,6.27
2018-01-06T21:24:01.260Z,6.27
2018-01-06T21:26:28.960Z,6.10
2018-01-06T21:28:56.552Z,5.40
2018-01-06T21:31:24.201Z,5.80
2018-01-06T21:33:52.771Z,5.20
2018-01-06T21:36:20.501Z,7.07
2018-01-06T21:38:48.172Z,6.70
2018-01-06T21:41:15.831Z,11.53
2018-01-06T21:43:43.382Z,6.70
2018-01-06T21:46:10.906Z,7.83
2018-01-06T21:48:38.494Z,5.63
2018-01-06T21:51:06.007Z,6.30
2018-01-06T21:53:33.545Z,6.73
2018-01-06T21:56:01.157Z,6.33
2018-01-06T21:58:28.716Z,6.60
2018-01-06T22:00:56.293Z,7.73
2018-01-06T22:03:23.855Z,5.50
2018-01-06T22:05:51.470Z,9.10
2018-01-06T22:08:18.996Z,7.33
2018-01-06T22:10:46.569Z,7.17
2018-01-06T22:13:14.080Z,7.93
2018-01-06T22:15:41.644Z,8.60
2018-01-06T22:18:09.447Z,8.13
2018-01-06T22:20:37.169Z,5.33
2018-01-06T22:23:04.757Z,7.73
2018-01-06T22:25:32.338Z,6.77
2018-01-06T22:28:00.145Z,6.13
2018-01-06T22:30:27.817Z,5.77
2018-01-06T22:32:55.345Z,9.80
2018-01-06T22:35:22.931Z,6.23
2018-01-06T22:37:50.480Z,6.07
2018-01-06T22:40:18.019Z,6.60
2018-01-06T22:42:45.527Z,6.63
2018-01-06T22:45:13.121Z,7.60
2018-01-06T22:47:40.640Z,9.53
2018-01-06T22:50:08.369Z,8.10
2018-01-06T22:52:35.925Z,8.10
2018-01-06T22:55:03.464Z,9.03
2018-01-06T22:57:31.000Z,6.90
2018-01-06T22:59:58.547Z,7.37
2018-01-06T23:02:26.164Z,9.77
2018-01-06T23:04:53.738Z,8.40
2018-01-06T23:07:21.291Z,7.33
2018-01-06T23:09:48.845Z,8.43
2018-01-06T23:12:16.428Z,7.73
2018-01-06T23:14:44.139Z,6.83
2018-01-06T23:17:11.875Z,8.90
2018-01-06T23:19:39.691Z,10.17
2018-01-06T23:22:07.477Z,7.70
2018-01-06T23:24:35.038Z,8.70
2018-01-06T23:27:02.579Z,10.37
2018-01-06T23:29:30.092Z,7.73
2018-01-06T23:31:57.862Z,11.70
2018-01-06T23:34:25.440Z,10.90
2018-01-06T23:36:52.976Z,9.27
2018-01-06T23:39:20.528Z,10.77
2018-01-06T23:41:48.125Z,10.87
2018-01-06T23:44:15.701Z,6.70
2018-01-06T23:46:43.322Z,11.10
2018-01-06T23:49:10.934Z,7.93
2018-01-06T23:51:38.494Z,10.87
2018-01-06T23:54:06.017Z,7.50
2018-01-06T23:56:33.670Z,8.40
2018-01-06T23:59:01.227Z,8.63
